Terminal Aerodrome Forecast
Issued by NWS Cleveland, OH

Home | Current Version | Previous Version | Graphics & Text | Print | Product List | Glossary On
Versions: 1 2 3 4 5 6 7 8 9 10 11 12 13 14 15 16
000
FTUS41 KCLE 221100
TAFERI
TAF
KERI 221129Z 2212/2312 27008KT P6SM BKN100
     FM221300 30009KT P6SM SCT100
     FM221600 30012G20KT P6SM SCT070
     FM230000 35006KT P6SM SKC
     FM230700 17004KT P6SM SKC=

USA.gov is the U.S. government's official web portal to all federal, state and local government web resources and services.